sensor_id;sensor_type;location;lat;lon;timestamp;pressure;altitude;pressure_sealevel;temperature;humidity
84944;BME280;75231;53.650;9.788;2024-03-17T00:00:16;102416.19;;;4.38;86.08
84944;BME280;75231;53.650;9.788;2024-03-17T00:02:44;102412.84;;;4.32;86.03
84944;BME280;75231;53.650;9.788;2024-03-17T00:05:09;102413.75;;;4.28;86.36
84944;BME280;75231;53.650;9.788;2024-03-17T00:07:34;102419.75;;;4.27;86.35
84944;BME280;75231;53.650;9.788;2024-03-17T00:10:00;102418.97;;;4.18;86.53
84944;BME280;75231;53.650;9.788;2024-03-17T00:12:25;102428.38;;;4.15;86.56
84944;BME280;75231;53.650;9.788;2024-03-17T00:14:51;102417.34;;;4.11;86.39
84944;BME280;75231;53.650;9.788;2024-03-17T00:17:16;102432.72;;;4.10;86.89
84944;BME280;75231;53.650;9.788;2024-03-17T00:19:41;102437.00;;;4.08;86.77
84944;BME280;75231;53.650;9.788;2024-03-17T00:22:07;102431.03;;;4.07;86.82
84944;BME280;75231;53.650;9.788;2024-03-17T00:24:34;102436.91;;;4.17;87.40
84944;BME280;75231;53.650;9.788;2024-03-17T00:27:00;102438.50;;;4.30;87.67
84944;BME280;75231;53.650;9.788;2024-03-17T00:29:26;102438.44;;;4.36;87.20
84944;BME280;75231;53.650;9.788;2024-03-17T00:31:51;102452.00;;;4.46;87.18
84944;BME280;75231;53.650;9.788;2024-03-17T00:34:16;102447.66;;;4.53;87.15
84944;BME280;75231;53.650;9.788;2024-03-17T00:36:42;102453.44;;;4.70;86.69
84944;BME280;75231;53.650;9.788;2024-03-17T00:39:07;102443.97;;;4.76;86.59
84944;BME280;75231;53.650;9.788;2024-03-17T00:41:32;102451.56;;;4.86;86.77
84944;BME280;75231;53.650;9.788;2024-03-17T00:43:57;102448.00;;;4.96;85.82
84944;BME280;75231;53.650;9.788;2024-03-17T00:46:25;102455.63;;;5.02;85.62
84944;BME280;75231;53.650;9.788;2024-03-17T00:48:51;102459.84;;;5.08;85.93
84944;BME280;75231;53.650;9.788;2024-03-17T00:51:16;102448.75;;;5.04;84.93
84944;BME280;75231;53.650;9.788;2024-03-17T00:53:42;102456.41;;;5.09;85.65
84944;BME280;75231;53.650;9.788;2024-03-17T00:56:07;102452.19;;;5.06;85.39
84944;BME280;75231;53.650;9.788;2024-03-17T00:58:33;102452.97;;;5.10;85.49
84944;BME280;75231;53.650;9.788;2024-03-17T01:00:58;102451.31;;;5.05;85.67
84944;BME280;75231;53.650;9.788;2024-03-17T01:03:24;102459.94;;;5.00;86.05
84944;BME280;75231;53.650;9.788;2024-03-17T01:05:49;102450.63;;;4.93;85.65
84944;BME280;75231;53.650;9.788;2024-03-17T01:08:18;102460.75;;;5.02;85.78
84944;BME280;75231;53.650;9.788;2024-03-17T01:10:43;102461.56;;;5.07;85.78
84944;BME280;75231;53.650;9.788;2024-03-17T01:13:09;102459.06;;;5.01;85.51
84944;BME280;75231;53.650;9.788;2024-03-17T01:15:39;102461.72;;;4.93;85.80
84944;BME280;75231;53.650;9.788;2024-03-17T01:18:05;102460.16;;;4.82;85.55
84944;BME280;75231;53.650;9.788;2024-03-17T01:20:31;102462.75;;;4.78;86.23
84944;BME280;75231;53.650;9.788;2024-03-17T01:22:57;102467.03;;;4.78;86.38
84944;BME280;75231;53.650;9.788;2024-03-17T01:25:22;102464.53;;;4.73;85.98
84944;BME280;75231;53.650;9.788;2024-03-17T01:27:48;102458.59;;;4.68;86.11
84944;BME280;75231;53.650;9.788;2024-03-17T01:30:13;102461.22;;;4.62;85.75
84944;BME280;75231;53.650;9.788;2024-03-17T01:32:38;102456.16;;;4.56;86.02
84944;BME280;75231;53.650;9.788;2024-03-17T01:35:04;102463.88;;;4.53;86.29
84944;BME280;75231;53.650;9.788;2024-03-17T01:37:31;102455.38;;;4.48;86.47
84944;BME280;75231;53.650;9.788;2024-03-17T01:39:57;102460.53;;;4.46;86.75
84944;BME280;75231;53.650;9.788;2024-03-17T01:42:22;102458.84;;;4.44;86.53
84944;BME280;75231;53.650;9.788;2024-03-17T01:44:47;102464.88;;;4.40;86.97
84944;BME280;75231;53.650;9.788;2024-03-17T01:47:13;102465.72;;;4.40;86.94
84944;BME280;75231;53.650;9.788;2024-03-17T01:49:38;102462.25;;;4.44;87.04
84944;BME280;75231;53.650;9.788;2024-03-17T01:52:04;102461.38;;;4.47;86.80
84944;BME280;75231;53.650;9.788;2024-03-17T01:54:30;102470.00;;;4.40;86.22
84944;BME280;75231;53.650;9.788;2024-03-17T01:56:56;102464.94;;;4.34;86.54
84944;BME280;75231;53.650;9.788;2024-03-17T01:59:21;102464.09;;;4.33;86.63
84944;BME280;75231;53.650;9.788;2024-03-17T02:01:47;102460.75;;;4.27;87.00
84944;BME280;75231;53.650;9.788;2024-03-17T02:04:12;102470.06;;;4.34;87.00
84944;BME280;75231;53.650;9.788;2024-03-17T02:06:37;102464.97;;;4.31;86.79
84944;BME280;75231;53.650;9.788;2024-03-17T02:09:04;102464.19;;;4.22;86.74
84944;BME280;75231;53.650;9.788;2024-03-17T02:11:33;102470.22;;;4.14;87.11
84944;BME280;75231;53.650;9.788;2024-03-17T02:14:00;102471.97;;;4.12;86.97
84944;BME280;75231;53.650;9.788;2024-03-17T02:16:26;102460.09;;;4.00;87.34
84944;BME280;75231;53.650;9.788;2024-03-17T02:18:57;102465.28;;;3.94;87.19
84944;BME280;75231;53.650;9.788;2024-03-17T02:21:24;102462.78;;;3.85;86.88
84944;BME280;75231;53.650;9.788;2024-03-17T02:23:53;102464.53;;;3.77;86.95
84944;BME280;75231;53.650;9.788;2024-03-17T02:26:19;102474.81;;;3.74;87.05
84944;BME280;75231;53.650;9.788;2024-03-17T02:28:45;102465.50;;;3.63;87.34
84944;BME280;75231;53.650;9.788;2024-03-17T02:31:13;102467.25;;;3.57;87.49
84944;BME280;75231;53.650;9.788;2024-03-17T02:33:39;102461.31;;;3.50;87.17
84944;BME280;75231;53.650;9.788;2024-03-17T02:36:05;102464.78;;;3.46;87.54
84944;BME280;75231;53.650;9.788;2024-03-17T02:38:34;102477.56;;;3.46;87.53
84944;BME280;75231;53.650;9.788;2024-03-17T02:41:18;102465.69;;;3.38;87.25
84944;BME280;75231;53.650;9.788;2024-03-17T02:43:44;102487.84;;;3.39;87.39
84944;BME280;75231;53.650;9.788;2024-03-17T02:46:14;102489.56;;;3.32;87.62
84944;BME280;75231;53.650;9.788;2024-03-17T02:48:41;102488.72;;;3.31;87.61
84944;BME280;75231;53.650;9.788;2024-03-17T02:51:13;102485.31;;;3.28;87.34
84944;BME280;75231;53.650;9.788;2024-03-17T02:53:42;102475.13;;;3.20;87.33
84944;BME280;75231;53.650;9.788;2024-03-17T02:56:08;102477.69;;;3.19;87.29
84944;BME280;75231;53.650;9.788;2024-03-17T02:58:38;102472.63;;;3.08;87.01
84944;BME280;75231;53.650;9.788;2024-03-17T03:01:07;102469.28;;;2.98;86.91
84944;BME280;75231;53.650;9.788;2024-03-17T03:03:35;102477.78;;;3.00;87.11
84944;BME280;75231;53.650;9.788;2024-03-17T03:06:00;102475.25;;;2.97;87.50
84944;BME280;75231;53.650;9.788;2024-03-17T03:08:29;102477.81;;;2.91;87.30
84944;BME280;75231;53.650;9.788;2024-03-17T03:10:54;102476.09;;;2.87;87.59
84944;BME280;75231;53.650;9.788;2024-03-17T03:13:19;102471.03;;;2.78;87.67
84944;BME280;75231;53.650;9.788;2024-03-17T03:15:46;102482.09;;;2.83;87.58
84944;BME280;75231;53.650;9.788;2024-03-17T03:18:12;102479.53;;;2.80;86.97
84944;BME280;75231;53.650;9.788;2024-03-17T03:20:38;102483.78;;;2.79;87.25
84944;BME280;75231;53.650;9.788;2024-03-17T03:23:03;102476.16;;;2.72;87.26
84944;BME280;75231;53.650;9.788;2024-03-17T03:25:29;102476.16;;;2.75;87.84
84944;BME280;75231;53.650;9.788;2024-03-17T03:27:54;102477.00;;;2.75;87.73
84944;BME280;75231;53.650;9.788;2024-03-17T03:30:22;102477.00;;;2.77;87.70
84944;BME280;75231;53.650;9.788;2024-03-17T03:32:48;102480.34;;;2.88;87.48
84944;BME280;75231;53.650;9.788;2024-03-17T03:35:13;102476.94;;;2.95;87.17
84944;BME280;75231;53.650;9.788;2024-03-17T03:37:40;102481.19;;;3.05;87.54
84944;BME280;75231;53.650;9.788;2024-03-17T03:40:06;102482.81;;;3.19;88.09
84944;BME280;75231;53.650;9.788;2024-03-17T03:42:44;102485.31;;;3.32;87.14
84944;BME280;75231;53.650;9.788;2024-03-17T03:45:10;102486.09;;;3.45;87.44
84944;BME280;75231;53.650;9.788;2024-03-17T03:47:39;102485.19;;;3.55;86.76
84944;BME280;75231;53.650;9.788;2024-03-17T03:50:15;102487.66;;;3.66;87.15
84944;BME280;75231;53.650;9.788;2024-03-17T03:52:41;102492.72;;;3.74;87.58
84944;BME280;75231;53.650;9.788;2024-03-17T03:55:08;102496.94;;;3.82;87.23
84944;BME280;75231;53.650;9.788;2024-03-17T03:57:36;102501.16;;;3.88;86.98
84944;BME280;75231;53.650;9.788;2024-03-17T04:00:02;102494.34;;;3.88;86.81
84944;BME280;75231;53.650;9.788;2024-03-17T04:02:37;102488.28;;;3.97;86.46
84944;BME280;75231;53.650;9.788;2024-03-17T04:05:03;102488.19;;;4.08;86.82
84944;BME280;75231;53.650;9.788;2024-03-17T04:07:28;102491.63;;;4.10;87.27
84944;BME280;75231;53.650;9.788;2024-03-17T04:09:54;102494.16;;;4.11;87.19
84944;BME280;75231;53.650;9.788;2024-03-17T04:12:19;102480.53;;;4.08;87.38
84944;BME280;75231;53.650;9.788;2024-03-17T04:14:45;102480.53;;;4.09;87.35
84944;BME280;75231;53.650;9.788;2024-03-17T04:17:11;102483.88;;;4.14;87.81
84944;BME280;75231;53.650;9.788;2024-03-17T04:19:37;102488.06;;;4.23;87.52
84944;BME280;75231;53.650;9.788;2024-03-17T04:22:02;102488.91;;;4.27;87.02
84944;BME280;75231;53.650;9.788;2024-03-17T04:24:27;102494.84;;;4.30;87.25
84944;BME280;75231;53.650;9.788;2024-03-17T04:26:53;102501.63;;;4.37;87.24
84944;BME280;75231;53.650;9.788;2024-03-17T04:29:18;102493.91;;;4.39;87.54
84944;BME280;75231;53.650;9.788;2024-03-17T04:31:45;102492.13;;;4.50;87.34
84944;BME280;75231;53.650;9.788;2024-03-17T04:34:14;102495.50;;;4.52;86.91
84944;BME280;75231;53.650;9.788;2024-03-17T04:36:39;102491.25;;;4.51;87.10
84944;BME280;75231;53.650;9.788;2024-03-17T04:39:04;102493.91;;;4.42;87.52
84944;BME280;75231;53.650;9.788;2024-03-17T04:41:33;102500.72;;;4.43;87.71
84944;BME280;75231;53.650;9.788;2024-03-17T04:43:58;102490.59;;;4.29;87.31
84944;BME280;75231;53.650;9.788;2024-03-17T04:46:24;102490.69;;;4.18;87.70
84944;BME280;75231;53.650;9.788;2024-03-17T04:48:49;102503.53;;;4.14;87.95
84944;BME280;75231;53.650;9.788;2024-03-17T04:51:15;102495.13;;;3.97;87.41
84944;BME280;75231;53.650;9.788;2024-03-17T04:53:41;102496.06;;;3.83;87.52
84944;BME280;75231;53.650;9.788;2024-03-17T04:56:06;102499.56;;;3.72;87.12
84944;BME280;75231;53.650;9.788;2024-03-17T04:58:33;102509.84;;;3.64;87.63
84944;BME280;75231;53.650;9.788;2024-03-17T05:01:08;102515.91;;;3.54;87.73
84944;BME280;75231;53.650;9.788;2024-03-17T05:03:34;102513.38;;;3.42;87.71
84944;BME280;75231;53.650;9.788;2024-03-17T05:06:03;102515.13;;;3.35;88.47
84944;BME280;75231;53.650;9.788;2024-03-17T05:08:30;102517.72;;;3.24;87.93
84944;BME280;75231;53.650;9.788;2024-03-17T05:11:05;102527.13;;;3.18;88.45
84944;BME280;75231;53.650;9.788;2024-03-17T05:13:31;102521.22;;;3.06;88.12
84944;BME280;75231;53.650;9.788;2024-03-17T05:15:57;102520.38;;;2.98;87.83
84944;BME280;75231;53.650;9.788;2024-03-17T05:18:25;102522.09;;;2.96;88.33
84944;BME280;75231;53.650;9.788;2024-03-17T05:23:25;102540.84;;;2.92;89.18
84944;BME280;75231;53.650;9.788;2024-03-17T05:25:51;102534.88;;;2.89;88.41
84944;BME280;75231;53.650;9.788;2024-03-17T05:28:17;102536.59;;;2.87;88.40
84944;BME280;75231;53.650;9.788;2024-03-17T05:30:42;102530.66;;;2.77;88.56
84944;BME280;75231;53.650;9.788;2024-03-17T05:33:07;102536.63;;;2.76;88.21
84944;BME280;75231;53.650;9.788;2024-03-17T05:35:33;102541.75;;;2.76;88.12
84944;BME280;75231;53.650;9.788;2024-03-17T05:37:58;102541.75;;;2.74;88.04
84944;BME280;75231;53.650;9.788;2024-03-17T05:40:23;102533.22;;;2.69;88.39
84944;BME280;75231;53.650;9.788;2024-03-17T05:42:48;102545.13;;;2.72;88.24
84944;BME280;75231;53.650;9.788;2024-03-17T05:45:15;102552.81;;;2.72;88.17
84944;BME280;75231;53.650;9.788;2024-03-17T05:47:41;102538.38;;;2.65;88.20
84944;BME280;75231;53.650;9.788;2024-03-17T05:50:07;102544.31;;;2.67;88.31
84944;BME280;75231;53.650;9.788;2024-03-17T05:52:32;102545.16;;;2.70;88.58
84944;BME280;75231;53.650;9.788;2024-03-17T05:54:58;102551.94;;;2.71;88.40
84944;BME280;75231;53.650;9.788;2024-03-17T05:57:23;102552.81;;;2.72;87.83
84944;BME280;75231;53.650;9.788;2024-03-17T05:59:49;102554.53;;;2.73;87.98
84944;BME280;75231;53.650;9.788;2024-03-17T06:02:15;102546.00;;;2.72;87.82
84944;BME280;75231;53.650;9.788;2024-03-17T06:04:41;102557.94;;;2.75;88.09
84944;BME280;75231;53.650;9.788;2024-03-17T06:07:06;102560.47;;;2.84;88.23
84944;BME280;75231;53.650;9.788;2024-03-17T06:09:31;102557.91;;;2.84;88.14
84944;BME280;75231;53.650;9.788;2024-03-17T06:11:57;102560.47;;;2.86;87.65
84944;BME280;75231;53.650;9.788;2024-03-17T06:14:22;102566.38;;;2.95;87.93
84944;BME280;75231;53.650;9.788;2024-03-17T06:16:48;102559.59;;;2.99;87.92
84944;BME280;75231;53.650;9.788;2024-03-17T06:19:13;102562.13;;;3.08;87.54
84944;BME280;75231;53.650;9.788;2024-03-17T06:21:39;102566.34;;;3.17;86.94
84944;BME280;75231;53.650;9.788;2024-03-17T06:24:05;102569.72;;;3.28;87.58
84944;BME280;75231;53.650;9.788;2024-03-17T06:26:31;102566.28;;;3.33;87.44
84944;BME280;75231;53.650;9.788;2024-03-17T06:28:59;102573.06;;;3.45;87.52
84944;BME280;75231;53.650;9.788;2024-03-17T06:31:24;102573.03;;;3.50;87.29
84944;BME280;75231;53.650;9.788;2024-03-17T06:33:50;102563.66;;;3.53;87.48
84944;BME280;75231;53.650;9.788;2024-03-17T06:36:15;102561.09;;;3.55;87.06
84944;BME280;75231;53.650;9.788;2024-03-17T06:38:41;102568.72;;;3.64;87.53
84944;BME280;75231;53.650;9.788;2024-03-17T06:41:06;102568.66;;;3.69;87.01
84944;BME280;75231;53.650;9.788;2024-03-17T06:43:31;102568.66;;;3.78;87.64
84944;BME280;75231;53.650;9.788;2024-03-17T06:45:58;102575.41;;;3.88;87.63
84944;BME280;75231;53.650;9.788;2024-03-17T06:48:25;102567.69;;;3.91;87.45
84944;BME280;75231;53.650;9.788;2024-03-17T06:50:53;102573.63;;;3.99;87.03
84944;BME280;75231;53.650;9.788;2024-03-17T06:53:20;102576.13;;;4.11;87.35
84944;BME280;75231;53.650;9.788;2024-03-17T06:55:56;102575.16;;;4.23;87.41
84944;BME280;75231;53.650;9.788;2024-03-17T06:58:26;102574.25;;;4.33;87.71
84944;BME280;75231;53.650;9.788;2024-03-17T07:00:57;102580.97;;;4.45;87.25
84944;BME280;75231;53.650;9.788;2024-03-17T07:03:27;102579.22;;;4.53;87.73
84944;BME280;75231;53.650;9.788;2024-03-17T07:05:54;102588.47;;;4.68;87.81
84944;BME280;75231;53.650;9.788;2024-03-17T07:08:20;102589.19;;;4.81;88.07
84944;BME280;75231;53.650;9.788;2024-03-17T07:13:24;102581.34;;;4.99;87.20
84944;BME280;75231;53.650;9.788;2024-03-17T07:15:49;102580.44;;;5.03;87.19
84944;BME280;75231;53.650;9.788;2024-03-17T07:18:15;102580.34;;;5.14;87.17
84944;BME280;75231;53.650;9.788;2024-03-17T07:20:40;102573.41;;;5.20;87.16
84944;BME280;75231;53.650;9.788;2024-03-17T07:23:06;102585.22;;;5.33;86.63
84944;BME280;75231;53.650;9.788;2024-03-17T07:25:31;102574.06;;;5.38;86.55
84944;BME280;75231;53.650;9.788;2024-03-17T07:27:57;102569.66;;;5.47;85.25
84944;BME280;75231;53.650;9.788;2024-03-17T07:30:22;102572.16;;;5.52;84.78
84944;BME280;75231;53.650;9.788;2024-03-17T07:32:47;102572.03;;;5.63;85.08
84944;BME280;75231;53.650;9.788;2024-03-17T07:35:12;102579.59;;;5.73;84.75
84944;BME280;75231;53.650;9.788;2024-03-17T07:37:39;102574.41;;;5.78;83.41
84944;BME280;75231;53.650;9.788;2024-03-17T07:40:04;102576.78;;;5.90;82.73
84944;BME280;75231;53.650;9.788;2024-03-17T07:42:32;102575.06;;;5.95;81.83
84944;BME280;75231;53.650;9.788;2024-03-17T07:44:58;102568.69;;;6.17;78.33
84944;BME280;75231;53.650;9.788;2024-03-17T07:47:23;102572.78;;;6.31;78.32
84944;BME280;75231;53.650;9.788;2024-03-17T07:49:48;102571.06;;;6.31;77.60
84944;BME280;75231;53.650;9.788;2024-03-17T07:52:14;102583.03;;;6.34;75.90
84944;BME280;75231;53.650;9.788;2024-03-17T07:54:39;102575.34;;;6.31;74.17
84944;BME280;75231;53.650;9.788;2024-03-17T07:57:04;102581.09;;;6.47;75.56
84944;BME280;75231;53.650;9.788;2024-03-17T07:59:30;102574.25;;;6.45;73.31
84944;BME280;75231;53.650;9.788;2024-03-17T08:01:56;102569.13;;;6.45;73.03
84944;BME280;75231;53.650;9.788;2024-03-17T08:04:22;102565.59;;;6.51;72.29
84944;BME280;75231;53.650;9.788;2024-03-17T08:06:47;102579.94;;;6.64;72.97
84944;BME280;75231;53.650;9.788;2024-03-17T08:09:12;102576.66;;;6.55;73.41
84944;BME280;75231;53.650;9.788;2024-03-17T08:11:37;102578.44;;;6.53;70.71
84944;BME280;75231;53.650;9.788;2024-03-17T08:14:03;102575.69;;;6.62;68.79
84944;BME280;75231;53.650;9.788;2024-03-17T08:16:29;102577.94;;;6.80;66.64
84944;BME280;75231;53.650;9.788;2024-03-17T08:18:55;102578.78;;;6.81;67.06
84944;BME280;75231;53.650;9.788;2024-03-17T08:21:20;102576.19;;;6.84;65.64
84944;BME280;75231;53.650;9.788;2024-03-17T08:23:46;102579.50;;;6.90;59.59
84944;BME280;75231;53.650;9.788;2024-03-17T08:26:12;102571.56;;;7.01;60.37
84944;BME280;75231;53.650;9.788;2024-03-17T08:28:38;102570.59;;;7.07;60.77
84944;BME280;75231;53.650;9.788;2024-03-17T08:31:03;102573.91;;;7.12;60.62
84944;BME280;75231;53.650;9.788;2024-03-17T08:33:29;102565.59;;;6.97;59.67
84944;BME280;75231;53.650;9.788;2024-03-17T08:35:57;102570.44;;;7.16;58.59
84944;BME280;75231;53.650;9.788;2024-03-17T08:38:23;102574.28;;;7.37;58.39
84944;BME280;75231;53.650;9.788;2024-03-17T08:40:49;102572.34;;;7.48;58.72
84944;BME280;75231;53.650;9.788;2024-03-17T08:43:18;102576.69;;;7.44;54.56
84944;BME280;75231;53.650;9.788;2024-03-17T08:45:44;102565.81;;;7.72;55.95
84944;BME280;75231;53.650;9.788;2024-03-17T08:48:10;102570.44;;;7.96;55.14
84944;BME280;75231;53.650;9.788;2024-03-17T08:50:38;102568.97;;;7.86;57.15
84944;BME280;75231;53.650;9.788;2024-03-17T08:53:03;102560.34;;;7.85;56.80
84944;BME280;75231;53.650;9.788;2024-03-17T08:55:28;102565.28;;;7.96;57.51
84944;BME280;75231;53.650;9.788;2024-03-17T08:57:54;102562.38;;;7.73;57.31
84944;BME280;75231;53.650;9.788;2024-03-17T09:00:19;102569.28;;;7.71;54.80
84944;BME280;75231;53.650;9.788;2024-03-17T09:02:44;102580.22;;;7.80;56.69
84944;BME280;75231;53.650;9.788;2024-03-17T09:05:10;102570.00;;;7.76;57.05
84944;BME280;75231;53.650;9.788;2024-03-17T09:07:37;102574.19;;;7.81;56.86
84944;BME280;75231;53.650;9.788;2024-03-17T09:10:03;102563.59;;;7.95;57.57
84944;BME280;75231;53.650;9.788;2024-03-17T09:12:29;102573.59;;;8.07;56.37
84944;BME280;75231;53.650;9.788;2024-03-17T09:14:54;102562.56;;;8.02;55.83
84944;BME280;75231;53.650;9.788;2024-03-17T09:17:19;102566.63;;;8.12;56.32
84944;BME280;75231;53.650;9.788;2024-03-17T09:19:46;102549.50;;;8.08;57.87
84944;BME280;75231;53.650;9.788;2024-03-17T09:22:12;102564.94;;;8.11;56.39
84944;BME280;75231;53.650;9.788;2024-03-17T09:24:38;102567.50;;;8.11;55.79
84944;BME280;75231;53.650;9.788;2024-03-17T09:27:03;102565.81;;;8.09;56.16
84944;BME280;75231;53.650;9.788;2024-03-17T09:29:30;102571.81;;;8.09;55.48
84944;BME280;75231;53.650;9.788;2024-03-17T09:31:55;102577.44;;;8.27;56.39
84944;BME280;75231;53.650;9.788;2024-03-17T09:34:20;102563.91;;;8.19;55.93
84944;BME280;75231;53.650;9.788;2024-03-17T09:36:46;102563.81;;;8.22;56.13
84944;BME280;75231;53.650;9.788;2024-03-17T09:39:13;102560.75;;;8.41;55.89
84944;BME280;75231;53.650;9.788;2024-03-17T09:41:47;102572.38;;;8.59;55.18
84944;BME280;75231;53.650;9.788;2024-03-17T09:44:21;102568.06;;;8.60;54.76
84944;BME280;75231;53.650;9.788;2024-03-17T09:46:49;102557.19;;;8.47;53.52
84944;BME280;75231;53.650;9.788;2024-03-17T09:49:15;102561.47;;;8.48;53.91
84944;BME280;75231;53.650;9.788;2024-03-17T09:51:44;102572.53;;;8.53;54.64
84944;BME280;75231;53.650;9.788;2024-03-17T09:54:17;102573.50;;;8.48;52.55
84944;BME280;75231;53.650;9.788;2024-03-17T09:56:44;102566.75;;;8.42;52.53
84944;BME280;75231;53.650;9.788;2024-03-17T09:59:12;102574.59;;;8.39;51.45
84944;BME280;75231;53.650;9.788;2024-03-17T10:01:38;102571.78;;;8.48;52.17
84944;BME280;75231;53.650;9.788;2024-03-17T10:04:03;102588.94;;;8.51;53.17
84944;BME280;75231;53.650;9.788;2024-03-17T10:06:35;102586.88;;;8.63;50.66
84944;BME280;75231;53.650;9.788;2024-03-17T10:09:15;102588.81;;;8.55;51.34
84944;BME280;75231;53.650;9.788;2024-03-17T10:11:46;102584.44;;;8.59;52.03
84944;BME280;75231;53.650;9.788;2024-03-17T10:14:16;102565.69;;;8.52;51.28
84944;BME280;75231;53.650;9.788;2024-03-17T10:16:43;102576.28;;;8.74;51.46
84944;BME280;75231;53.650;9.788;2024-03-17T10:19:15;102569.09;;;8.85;52.90
84944;BME280;75231;53.650;9.788;2024-03-17T10:21:44;102579.88;;;9.01;52.23
84944;BME280;75231;53.650;9.788;2024-03-17T10:24:27;102563.31;;;9.08;51.75
84944;BME280;75231;53.650;9.788;2024-03-17T10:26:59;102566.53;;;9.16;53.45
84944;BME280;75231;53.650;9.788;2024-03-17T10:29:29;102563.88;;;9.19;53.64
84944;BME280;75231;53.650;9.788;2024-03-17T10:32:19;102585.09;;;9.29;51.78
84944;BME280;75231;53.650;9.788;2024-03-17T10:34:46;102578.34;;;9.25;51.04
84944;BME280;75231;53.650;9.788;2024-03-17T10:39:46;102587.47;;;9.37;52.83
84944;BME280;75231;53.650;9.788;2024-03-17T10:42:13;102581.25;;;9.14;50.98
84944;BME280;75231;53.650;9.788;2024-03-17T10:44:42;102580.72;;;9.02;51.37
84944;BME280;75231;53.650;9.788;2024-03-17T10:47:22;102579.09;;;8.97;52.80
84944;BME280;75231;53.650;9.788;2024-03-17T10:49:50;102572.06;;;9.03;53.77
84944;BME280;75231;53.650;9.788;2024-03-17T10:52:17;102581.72;;;9.27;55.76
84944;BME280;75231;53.650;9.788;2024-03-17T10:54:53;102574.75;;;9.60;55.97
84944;BME280;75231;53.650;9.788;2024-03-17T10:57:37;102585.63;;;9.42;55.79
84944;BME280;75231;53.650;9.788;2024-03-17T11:00:12;102585.44;;;9.48;55.30
84944;BME280;75231;53.650;9.788;2024-03-17T11:02:43;102579.00;;;9.61;55.31
84944;BME280;75231;53.650;9.788;2024-03-17T11:05:18;102577.41;;;9.57;53.66
84944;BME280;75231;53.650;9.788;2024-03-17T11:07:45;102571.28;;;9.30;54.42
84944;BME280;75231;53.650;9.788;2024-03-17T11:10:19;102578.28;;;9.58;53.23
84944;BME280;75231;53.650;9.788;2024-03-17T11:12:55;102573.88;;;9.60;52.41
84944;BME280;75231;53.650;9.788;2024-03-17T11:23:33;102568.97;;;10.08;52.87
84944;BME280;75231;53.650;9.788;2024-03-17T11:25:58;102578.31;;;10.12;52.39
84944;BME280;75231;53.650;9.788;2024-03-17T11:28:46;102575.03;;;10.07;51.70
84944;BME280;75231;53.650;9.788;2024-03-17T11:31:38;102569.75;;;10.10;51.66
84944;BME280;75231;53.650;9.788;2024-03-17T11:34:29;102573.44;;;10.03;52.93
84944;BME280;75231;53.650;9.788;2024-03-17T11:36:56;102572.72;;;9.98;52.53
84944;BME280;75231;53.650;9.788;2024-03-17T11:39:54;102567.13;;;9.84;49.15
84944;BME280;75231;53.650;9.788;2024-03-17T11:42:24;102555.75;;;9.61;50.51
84944;BME280;75231;53.650;9.788;2024-03-17T11:45:05;102565.97;;;9.66;49.86
84944;BME280;75231;53.650;9.788;2024-03-17T11:47:36;102557.19;;;9.71;52.49
84944;BME280;75231;53.650;9.788;2024-03-17T11:50:04;102550.94;;;9.78;51.76
84944;BME280;75231;53.650;9.788;2024-03-17T11:52:29;102551.63;;;9.84;52.81
84944;BME280;75231;53.650;9.788;2024-03-17T11:54:55;102548.63;;;9.97;50.64
84944;BME280;75231;53.650;9.788;2024-03-17T11:57:21;102553.13;;;10.19;50.84
84944;BME280;75231;53.650;9.788;2024-03-17T11:59:48;102553.75;;;10.25;49.39
84944;BME280;75231;53.650;9.788;2024-03-17T12:02:25;102530.00;;;9.86;48.51
84944;BME280;75231;53.650;9.788;2024-03-17T12:04:53;102530.56;;;9.96;52.03
84944;BME280;75231;53.650;9.788;2024-03-17T12:07:20;102530.09;;;9.83;50.22
84944;BME280;75231;53.650;9.788;2024-03-17T12:09:48;102530.22;;;9.80;49.28
84944;BME280;75231;53.650;9.788;2024-03-17T12:12:21;102525.69;;;9.87;49.85
84944;BME280;75231;53.650;9.788;2024-03-17T12:14:48;102531.97;;;10.06;51.13
84944;BME280;75231;53.650;9.788;2024-03-17T12:17:15;102518.28;;;10.02;49.88
84944;BME280;75231;53.650;9.788;2024-03-17T12:19:43;102521.44;;;10.12;51.22
84944;BME280;75231;53.650;9.788;2024-03-17T12:22:15;102521.72;;;10.03;49.19
84944;BME280;75231;53.650;9.788;2024-03-17T12:24:43;102535.16;;;10.14;50.54
84944;BME280;75231;53.650;9.788;2024-03-17T12:27:18;102528.28;;;10.13;50.65
84944;BME280;75231;53.650;9.788;2024-03-17T12:29:43;102531.78;;;10.12;50.32
84944;BME280;75231;53.650;9.788;2024-03-17T12:34:35;102524.53;;;10.23;52.12
84944;BME280;75231;53.650;9.788;2024-03-17T12:37:04;102521.81;;;10.26;52.15
84944;BME280;75231;53.650;9.788;2024-03-17T12:39:33;102521.69;;;10.31;51.95
84944;BME280;75231;53.650;9.788;2024-03-17T12:44:31;102505.50;;;10.24;51.98
84944;BME280;75231;53.650;9.788;2024-03-17T12:46:58;102515.66;;;10.30;51.51
84944;BME280;75231;53.650;9.788;2024-03-17T12:49:26;102501.13;;;10.26;48.85
84944;BME280;75231;53.650;9.788;2024-03-17T12:51:52;102491.06;;;10.44;50.24
84944;BME280;75231;53.650;9.788;2024-03-17T12:54:22;102499.50;;;10.49;50.49
84944;BME280;75231;53.650;9.788;2024-03-17T12:56:49;102496.47;;;10.38;48.81
84944;BME280;75231;53.650;9.788;2024-03-17T12:59:53;102497.69;;;10.26;48.32
84944;BME280;75231;53.650;9.788;2024-03-17T13:02:43;102493.16;;;10.32;52.43
84944;BME280;75231;53.650;9.788;2024-03-17T13:05:16;102492.44;;;10.54;53.05
84944;BME280;75231;53.650;9.788;2024-03-17T13:07:43;102476.91;;;10.54;49.19
84944;BME280;75231;53.650;9.788;2024-03-17T13:10:10;102469.34;;;10.48;48.86
84944;BME280;75231;53.650;9.788;2024-03-17T13:12:36;102472.84;;;10.47;49.39
84944;BME280;75231;53.650;9.788;2024-03-17T13:15:01;102472.72;;;10.50;47.95
84944;BME280;75231;53.650;9.788;2024-03-17T13:17:27;102469.41;;;10.46;48.45
84944;BME280;75231;53.650;9.788;2024-03-17T13:19:54;102469.47;;;10.45;48.02
84944;BME280;75231;53.650;9.788;2024-03-17T13:22:20;102472.69;;;10.51;47.43